sensor_id;sensor_type;location;lat;lon;timestamp;temperature;humidity
3406;DHT22;10008;48.682;9.016;2024-01-15T00:02:16;-0.90;99.90
3406;DHT22;10008;48.682;9.016;2024-01-15T00:04:42;-0.90;99.90
3406;DHT22;10008;48.682;9.016;2024-01-15T00:07:08;-0.90;99.90
3406;DHT22;10008;48.682;9.016;2024-01-15T00:09:34;-0.90;99.90
3406;DHT22;10008;48.682;9.016;2024-01-15T00:12:00;-0.80;99.90
3406;DHT22;10008;48.682;9.016;2024-01-15T00:14:26;-0.90;99.90
3406;DHT22;10008;48.682;9.016;2024-01-15T00:16:52;-0.90;99.90
3406;DHT22;10008;48.682;9.016;2024-01-15T00:19:21;-0.90;99.90
3406;DHT22;10008;48.682;9.016;2024-01-15T00:21:47;-0.90;99.90
3406;DHT22;10008;48.682;9.016;2024-01-15T00:24:13;-0.90;99.90
3406;DHT22;10008;48.682;9.016;2024-01-15T00:26:40;-0.90;99.90
3406;DHT22;10008;48.682;9.016;2024-01-15T00:29:07;-0.90;99.90
3406;DHT22;10008;48.682;9.016;2024-01-15T00:31:33;-1.00;99.90
3406;DHT22;10008;48.682;9.016;2024-01-15T00:33:59;-0.90;99.90
3406;DHT22;10008;48.682;9.016;2024-01-15T00:36:25;-0.90;99.90
3406;DHT22;10008;48.682;9.016;2024-01-15T00:38:50;-1.00;99.90
3406;DHT22;10008;48.682;9.016;2024-01-15T00:41:17;-1.10;99.90
3406;DHT22;10008;48.682;9.016;2024-01-15T00:43:44;-1.10;99.90
3406;DHT22;10008;48.682;9.016;2024-01-15T00:46:10;-1.20;99.90
3406;DHT22;10008;48.682;9.016;2024-01-15T00:48:36;-1.10;99.90
3406;DHT22;10008;48.682;9.016;2024-01-15T00:51:04;-1.10;99.90
3406;DHT22;10008;48.682;9.016;2024-01-15T00:53:30;-1.20;99.90
3406;DHT22;10008;48.682;9.016;2024-01-15T00:55:56;-1.20;99.90
3406;DHT22;10008;48.682;9.016;2024-01-15T00:58:22;-1.20;99.90
3406;DHT22;10008;48.682;9.016;2024-01-15T01:00:48;-1.20;99.90
3406;DHT22;10008;48.682;9.016;2024-01-15T01:03:14;-1.20;99.90
3406;DHT22;10008;48.682;9.016;2024-01-15T01:05:39;-1.20;99.90
3406;DHT22;10008;48.682;9.016;2024-01-15T01:08:05;-1.20;99.90
3406;DHT22;10008;48.682;9.016;2024-01-15T01:10:31;-0.80;99.90
3406;DHT22;10008;48.682;9.016;2024-01-15T01:12:56;-1.10;99.90
3406;DHT22;10008;48.682;9.016;2024-01-15T01:15:22;-1.00;99.90
3406;DHT22;10008;48.682;9.016;2024-01-15T01:17:48;-1.10;99.90
3406;DHT22;10008;48.682;9.016;2024-01-15T01:20:14;-1.00;99.90
3406;DHT22;10008;48.682;9.016;2024-01-15T01:22:41;-1.00;99.90
3406;DHT22;10008;48.682;9.016;2024-01-15T01:25:07;-0.90;99.90
3406;DHT22;10008;48.682;9.016;2024-01-15T01:27:32;-1.00;99.90
3406;DHT22;10008;48.682;9.016;2024-01-15T01:29:58;-0.90;99.90
3406;DHT22;10008;48.682;9.016;2024-01-15T01:32:24;-0.90;99.90
3406;DHT22;10008;48.682;9.016;2024-01-15T01:34:50;-0.90;99.90
3406;DHT22;10008;48.682;9.016;2024-01-15T01:37:15;-0.90;99.90
3406;DHT22;10008;48.682;9.016;2024-01-15T01:39:42;-0.90;99.90
3406;DHT22;10008;48.682;9.016;2024-01-15T01:42:08;-0.80;99.90
3406;DHT22;10008;48.682;9.016;2024-01-15T01:44:34;-0.80;99.90
3406;DHT22;10008;48.682;9.016;2024-01-15T01:47:00;-0.70;99.90
3406;DHT22;10008;48.682;9.016;2024-01-15T01:49:27;-0.70;99.90
3406;DHT22;10008;48.682;9.016;2024-01-15T01:51:57;-0.70;99.90
3406;DHT22;10008;48.682;9.016;2024-01-15T01:54:23;-0.70;99.90
3406;DHT22;10008;48.682;9.016;2024-01-15T01:56:50;-0.70;99.90
3406;DHT22;10008;48.682;9.016;2024-01-15T01:59:17;-0.80;99.90
3406;DHT22;10008;48.682;9.016;2024-01-15T02:01:43;-0.80;99.90
3406;DHT22;10008;48.682;9.016;2024-01-15T02:04:11;-0.90;99.90
3406;DHT22;10008;48.682;9.016;2024-01-15T02:06:37;-0.90;99.90
3406;DHT22;10008;48.682;9.016;2024-01-15T02:09:03;-0.90;99.90
3406;DHT22;10008;48.682;9.016;2024-01-15T02:11:31;-0.80;99.90
3406;DHT22;10008;48.682;9.016;2024-01-15T02:13:57;-0.80;99.90
3406;DHT22;10008;48.682;9.016;2024-01-15T02:16:22;-0.90;99.90
3406;DHT22;10008;48.682;9.016;2024-01-15T02:18:48;-0.80;99.90
3406;DHT22;10008;48.682;9.016;2024-01-15T02:21:14;-0.90;99.90
3406;DHT22;10008;48.682;9.016;2024-01-15T02:23:40;-0.90;99.90
3406;DHT22;10008;48.682;9.016;2024-01-15T02:26:06;-0.90;99.90
3406;DHT22;10008;48.682;9.016;2024-01-15T02:28:33;-0.90;99.90
3406;DHT22;10008;48.682;9.016;2024-01-15T02:30:58;-0.90;99.90
3406;DHT22;10008;48.682;9.016;2024-01-15T02:33:24;-0.90;99.90
3406;DHT22;10008;48.682;9.016;2024-01-15T02:35:50;-1.00;99.90
3406;DHT22;10008;48.682;9.016;2024-01-15T02:38:16;-1.00;99.90
3406;DHT22;10008;48.682;9.016;2024-01-15T02:40:43;-1.00;99.90
3406;DHT22;10008;48.682;9.016;2024-01-15T02:43:09;-1.00;99.90
3406;DHT22;10008;48.682;9.016;2024-01-15T02:45:35;-1.00;99.90
3406;DHT22;10008;48.682;9.016;2024-01-15T02:48:01;-1.00;99.90
3406;DHT22;10008;48.682;9.016;2024-01-15T02:50:27;-1.00;99.90
3406;DHT22;10008;48.682;9.016;2024-01-15T02:52:52;-1.00;99.90
3406;DHT22;10008;48.682;9.016;2024-01-15T02:55:18;-1.00;99.90
3406;DHT22;10008;48.682;9.016;2024-01-15T02:57:44;-1.00;99.90
3406;DHT22;10008;48.682;9.016;2024-01-15T03:00:10;-1.10;99.90
3406;DHT22;10008;48.682;9.016;2024-01-15T03:02:38;-1.00;99.90
3406;DHT22;10008;48.682;9.016;2024-01-15T03:05:12;-1.00;99.90
3406;DHT22;10008;48.682;9.016;2024-01-15T03:07:37;-1.00;99.90
3406;DHT22;10008;48.682;9.016;2024-01-15T03:10:05;-1.00;99.90
3406;DHT22;10008;48.682;9.016;2024-01-15T03:12:31;-1.00;99.90
3406;DHT22;10008;48.682;9.016;2024-01-15T03:14:57;-1.00;99.90
3406;DHT22;10008;48.682;9.016;2024-01-15T03:17:23;-0.90;99.90
3406;DHT22;10008;48.682;9.016;2024-01-15T03:19:48;-0.90;99.90
3406;DHT22;10008;48.682;9.016;2024-01-15T03:22:16;-0.80;99.90
3406;DHT22;10008;48.682;9.016;2024-01-15T03:24:41;-0.90;99.90
3406;DHT22;10008;48.682;9.016;2024-01-15T03:27:07;-0.80;99.90
3406;DHT22;10008;48.682;9.016;2024-01-15T03:29:33;-0.90;99.90
3406;DHT22;10008;48.682;9.016;2024-01-15T03:31:59;-0.90;99.90
3406;DHT22;10008;48.682;9.016;2024-01-15T03:34:24;-0.50;99.90
3406;DHT22;10008;48.682;9.016;2024-01-15T03:36:50;-0.80;99.90
3406;DHT22;10008;48.682;9.016;2024-01-15T03:39:16;-0.70;99.90
3406;DHT22;10008;48.682;9.016;2024-01-15T03:41:42;-0.70;99.90
3406;DHT22;10008;48.682;9.016;2024-01-15T03:44:07;-0.80;99.90
3406;DHT22;10008;48.682;9.016;2024-01-15T03:46:33;-0.70;99.90
3406;DHT22;10008;48.682;9.016;2024-01-15T03:48:59;-0.70;99.90
3406;DHT22;10008;48.682;9.016;2024-01-15T03:51:24;-0.60;99.90
3406;DHT22;10008;48.682;9.016;2024-01-15T03:53:50;-0.60;99.90
3406;DHT22;10008;48.682;9.016;2024-01-15T03:56:16;-0.50;99.90
3406;DHT22;10008;48.682;9.016;2024-01-15T03:58:42;-0.50;99.90
3406;DHT22;10008;48.682;9.016;2024-01-15T04:01:09;-0.50;99.90
3406;DHT22;10008;48.682;9.016;2024-01-15T04:03:36;-0.40;99.90
3406;DHT22;10008;48.682;9.016;2024-01-15T04:06:02;-0.40;99.90
3406;DHT22;10008;48.682;9.016;2024-01-15T04:08:27;-0.40;99.90
3406;DHT22;10008;48.682;9.016;2024-01-15T04:10:53;-0.40;99.90
3406;DHT22;10008;48.682;9.016;2024-01-15T04:13:20;-0.30;99.90
3406;DHT22;10008;48.682;9.016;2024-01-15T04:15:46;-0.40;99.90
3406;DHT22;10008;48.682;9.016;2024-01-15T04:18:12;-0.30;99.90
3406;DHT22;10008;48.682;9.016;2024-01-15T04:20:37;-0.30;99.90
3406;DHT22;10008;48.682;9.016;2024-01-15T04:23:04;-0.30;99.90
3406;DHT22;10008;48.682;9.016;2024-01-15T04:25:30;-0.30;99.90
3406;DHT22;10008;48.682;9.016;2024-01-15T04:27:56;-0.30;99.90
3406;DHT22;10008;48.682;9.016;2024-01-15T04:30:22;-0.30;99.90
3406;DHT22;10008;48.682;9.016;2024-01-15T04:32:47;-0.30;99.90
3406;DHT22;10008;48.682;9.016;2024-01-15T04:35:13;-0.30;99.90
3406;DHT22;10008;48.682;9.016;2024-01-15T04:37:39;-0.30;99.90
3406;DHT22;10008;48.682;9.016;2024-01-15T04:40:06;-0.30;99.90
3406;DHT22;10008;48.682;9.016;2024-01-15T04:42:32;-0.30;99.90
3406;DHT22;10008;48.682;9.016;2024-01-15T04:44:58;-0.30;99.90
3406;DHT22;10008;48.682;9.016;2024-01-15T04:47:23;-0.30;99.90
3406;DHT22;10008;48.682;9.016;2024-01-15T04:49:49;-0.30;99.90
3406;DHT22;10008;48.682;9.016;2024-01-15T04:52:15;-0.30;99.90
3406;DHT22;10008;48.682;9.016;2024-01-15T04:54:41;-0.30;99.90
3406;DHT22;10008;48.682;9.016;2024-01-15T04:57:06;-0.30;99.90
3406;DHT22;10008;48.682;9.016;2024-01-15T04:59:32;-0.30;99.90
3406;DHT22;10008;48.682;9.016;2024-01-15T05:01:58;-0.30;99.90
3406;DHT22;10008;48.682;9.016;2024-01-15T05:04:24;-0.30;99.90
3406;DHT22;10008;48.682;9.016;2024-01-15T05:06:53;-0.40;99.90
3406;DHT22;10008;48.682;9.016;2024-01-15T05:09:19;-0.30;99.90
3406;DHT22;10008;48.682;9.016;2024-01-15T05:11:45;-0.30;99.90
3406;DHT22;10008;48.682;9.016;2024-01-15T05:14:10;-0.30;99.90
3406;DHT22;10008;48.682;9.016;2024-01-15T05:16:40;-0.30;99.90
3406;DHT22;10008;48.682;9.016;2024-01-15T05:19:07;-0.20;99.90
3406;DHT22;10008;48.682;9.016;2024-01-15T05:21:33;-0.20;99.90
3406;DHT22;10008;48.682;9.016;2024-01-15T05:23:58;-0.20;99.90
3406;DHT22;10008;48.682;9.016;2024-01-15T05:26:24;-0.20;99.90
3406;DHT22;10008;48.682;9.016;2024-01-15T05:28:50;-0.30;99.90
3406;DHT22;10008;48.682;9.016;2024-01-15T05:31:16;-0.30;99.90
3406;DHT22;10008;48.682;9.016;2024-01-15T05:33:41;-0.30;99.90
3406;DHT22;10008;48.682;9.016;2024-01-15T05:36:07;-0.30;99.90
3406;DHT22;10008;48.682;9.016;2024-01-15T05:38:33;-0.30;99.90
3406;DHT22;10008;48.682;9.016;2024-01-15T05:40:59;-0.10;99.90
3406;DHT22;10008;48.682;9.016;2024-01-15T05:43:24;-0.30;99.90
3406;DHT22;10008;48.682;9.016;2024-01-15T05:45:50;0.00;99.90
3406;DHT22;10008;48.682;9.016;2024-01-15T05:48:16;-0.40;99.90
3406;DHT22;10008;48.682;9.016;2024-01-15T05:50:41;-0.40;99.90
3406;DHT22;10008;48.682;9.016;2024-01-15T05:53:07;-0.40;99.90
3406;DHT22;10008;48.682;9.016;2024-01-15T05:55:34;-0.40;99.90
3406;DHT22;10008;48.682;9.016;2024-01-15T05:58:00;-0.40;99.90
3406;DHT22;10008;48.682;9.016;2024-01-15T06:00:26;-0.40;99.90
3406;DHT22;10008;48.682;9.016;2024-01-15T06:02:52;-0.40;99.90
3406;DHT22;10008;48.682;9.016;2024-01-15T06:05:18;-0.40;99.90
3406;DHT22;10008;48.682;9.016;2024-01-15T06:07:43;-0.40;99.90
3406;DHT22;10008;48.682;9.016;2024-01-15T06:10:09;-0.40;99.90
3406;DHT22;10008;48.682;9.016;2024-01-15T06:12:35;-0.30;99.90
3406;DHT22;10008;48.682;9.016;2024-01-15T06:15:00;-0.30;99.90
3406;DHT22;10008;48.682;9.016;2024-01-15T06:17:26;-0.40;99.90
3406;DHT22;10008;48.682;9.016;2024-01-15T06:19:52;-0.40;99.90
3406;DHT22;10008;48.682;9.016;2024-01-15T06:22:18;-0.30;99.90
3406;DHT22;10008;48.682;9.016;2024-01-15T06:24:43;-0.40;99.90
3406;DHT22;10008;48.682;9.016;2024-01-15T06:27:09;-0.30;99.90
3406;DHT22;10008;48.682;9.016;2024-01-15T06:29:37;-0.30;99.90
3406;DHT22;10008;48.682;9.016;2024-01-15T06:32:04;-0.30;99.90
3406;DHT22;10008;48.682;9.016;2024-01-15T06:34:29;-0.40;99.90
3406;DHT22;10008;48.682;9.016;2024-01-15T06:36:55;-0.40;99.90
3406;DHT22;10008;48.682;9.016;2024-01-15T06:39:21;-0.30;99.90
3406;DHT22;10008;48.682;9.016;2024-01-15T06:41:47;-0.40;99.90
3406;DHT22;10008;48.682;9.016;2024-01-15T06:44:13;-0.40;99.90
3406;DHT22;10008;48.682;9.016;2024-01-15T06:46:45;-0.30;99.90
3406;DHT22;10008;48.682;9.016;2024-01-15T06:49:11;-0.40;99.90
3406;DHT22;10008;48.682;9.016;2024-01-15T06:51:37;-0.30;99.90
3406;DHT22;10008;48.682;9.016;2024-01-15T06:54:04;-0.30;99.90
3406;DHT22;10008;48.682;9.016;2024-01-15T06:56:30;-0.30;99.90
3406;DHT22;10008;48.682;9.016;2024-01-15T06:58:56;-0.40;99.90
3406;DHT22;10008;48.682;9.016;2024-01-15T07:01:22;-0.30;99.90
3406;DHT22;10008;48.682;9.016;2024-01-15T07:03:48;-0.40;99.90
3406;DHT22;10008;48.682;9.016;2024-01-15T07:06:14;-0.40;99.90
3406;DHT22;10008;48.682;9.016;2024-01-15T07:08:40;-0.40;99.90
3406;DHT22;10008;48.682;9.016;2024-01-15T07:11:06;-0.40;99.90
3406;DHT22;10008;48.682;9.016;2024-01-15T07:13:32;-0.40;99.90
3406;DHT22;10008;48.682;9.016;2024-01-15T07:15:58;-0.40;99.90
3406;DHT22;10008;48.682;9.016;2024-01-15T07:18:24;-0.40;99.90
3406;DHT22;10008;48.682;9.016;2024-01-15T07:20:50;-0.40;99.90
3406;DHT22;10008;48.682;9.016;2024-01-15T07:23:16;-0.40;99.90
3406;DHT22;10008;48.682;9.016;2024-01-15T07:25:43;-0.40;99.90
3406;DHT22;10008;48.682;9.016;2024-01-15T07:28:09;-0.30;99.90
3406;DHT22;10008;48.682;9.016;2024-01-15T07:30:35;-0.30;99.90
3406;DHT22;10008;48.682;9.016;2024-01-15T07:33:00;-0.30;99.90
3406;DHT22;10008;48.682;9.016;2024-01-15T07:35:26;-0.30;99.90
3406;DHT22;10008;48.682;9.016;2024-01-15T07:37:52;-0.20;99.90
3406;DHT22;10008;48.682;9.016;2024-01-15T07:40:18;-0.20;99.90
3406;DHT22;10008;48.682;9.016;2024-01-15T07:42:43;-0.20;99.90
3406;DHT22;10008;48.682;9.016;2024-01-15T07:45:10;-0.10;99.90
3406;DHT22;10008;48.682;9.016;2024-01-15T07:47:36;-0.10;99.90
3406;DHT22;10008;48.682;9.016;2024-01-15T07:50:02;0.00;99.90
3406;DHT22;10008;48.682;9.016;2024-01-15T07:52:28;0.00;99.90
3406;DHT22;10008;48.682;9.016;2024-01-15T07:54:54;0.00;99.90
3406;DHT22;10008;48.682;9.016;2024-01-15T07:57:20;0.00;99.90
3406;DHT22;10008;48.682;9.016;2024-01-15T07:59:46;0.00;99.90
3406;DHT22;10008;48.682;9.016;2024-01-15T08:02:11;0.00;99.90
3406;DHT22;10008;48.682;9.016;2024-01-15T08:04:38;0.20;99.90
3406;DHT22;10008;48.682;9.016;2024-01-15T08:07:06;0.10;99.90
3406;DHT22;10008;48.682;9.016;2024-01-15T08:09:35;0.10;99.90
3406;DHT22;10008;48.682;9.016;2024-01-15T08:12:01;0.10;99.90
3406;DHT22;10008;48.682;9.016;2024-01-15T08:14:26;0.10;99.90
3406;DHT22;10008;48.682;9.016;2024-01-15T08:16:52;0.10;99.90
3406;DHT22;10008;48.682;9.016;2024-01-15T08:19:18;0.20;99.90
3406;DHT22;10008;48.682;9.016;2024-01-15T08:21:45;0.20;99.90
3406;DHT22;10008;48.682;9.016;2024-01-15T08:24:11;0.30;99.90
3406;DHT22;10008;48.682;9.016;2024-01-15T08:26:37;0.30;99.90
3406;DHT22;10008;48.682;9.016;2024-01-15T08:29:03;0.40;99.90
3406;DHT22;10008;48.682;9.016;2024-01-15T08:31:28;0.40;99.90
3406;DHT22;10008;48.682;9.016;2024-01-15T08:33:54;0.40;99.90
3406;DHT22;10008;48.682;9.016;2024-01-15T08:36:21;0.50;99.90
3406;DHT22;10008;48.682;9.016;2024-01-15T08:38:46;0.60;99.90
3406;DHT22;10008;48.682;9.016;2024-01-15T08:41:13;0.60;99.90
3406;DHT22;10008;48.682;9.016;2024-01-15T08:43:39;0.60;99.90
3406;DHT22;10008;48.682;9.016;2024-01-15T08:46:05;0.70;99.90
3406;DHT22;10008;48.682;9.016;2024-01-15T08:48:31;0.70;99.90
3406;DHT22;10008;48.682;9.016;2024-01-15T08:50:57;0.70;99.90
3406;DHT22;10008;48.682;9.016;2024-01-15T08:53:23;0.60;99.90
3406;DHT22;10008;48.682;9.016;2024-01-15T08:55:49;0.60;99.90
3406;DHT22;10008;48.682;9.016;2024-01-15T08:58:15;0.60;99.90
3406;DHT22;10008;48.682;9.016;2024-01-15T09:00:41;0.60;99.90
3406;DHT22;10008;48.682;9.016;2024-01-15T09:03:07;0.60;99.90
3406;DHT22;10008;48.682;9.016;2024-01-15T09:05:34;0.70;99.90
3406;DHT22;10008;48.682;9.016;2024-01-15T09:07:59;0.70;99.90
3406;DHT22;10008;48.682;9.016;2024-01-15T09:10:25;1.10;99.90
3406;DHT22;10008;48.682;9.016;2024-01-15T09:12:51;0.80;99.90
3406;DHT22;10008;48.682;9.016;2024-01-15T09:15:17;0.90;99.90
3406;DHT22;10008;48.682;9.016;2024-01-15T09:17:43;1.20;99.90
3406;DHT22;10008;48.682;9.016;2024-01-15T09:20:09;0.80;99.90
3406;DHT22;10008;48.682;9.016;2024-01-15T09:22:38;0.90;99.90
3406;DHT22;10008;48.682;9.016;2024-01-15T09:25:06;0.80;99.90
3406;DHT22;10008;48.682;9.016;2024-01-15T09:27:32;0.80;99.90
3406;DHT22;10008;48.682;9.016;2024-01-15T09:29:58;1.00;99.90
3406;DHT22;10008;48.682;9.016;2024-01-15T09:32:23;0.90;99.90
3406;DHT22;10008;48.682;9.016;2024-01-15T09:34:50;1.30;99.90
3406;DHT22;10008;48.682;9.016;2024-01-15T09:37:16;1.00;99.90
3406;DHT22;10008;48.682;9.016;2024-01-15T09:39:41;1.00;99.90
3406;DHT22;10008;48.682;9.016;2024-01-15T09:42:08;1.00;99.90
3406;DHT22;10008;48.682;9.016;2024-01-15T09:44:34;1.00;99.90
3406;DHT22;10008;48.682;9.016;2024-01-15T09:47:01;1.00;99.90
3406;DHT22;10008;48.682;9.016;2024-01-15T09:49:27;1.30;99.90
3406;DHT22;10008;48.682;9.016;2024-01-15T09:51:56;1.10;99.90
3406;DHT22;10008;48.682;9.016;2024-01-15T09:54:22;1.10;99.90
3406;DHT22;10008;48.682;9.016;2024-01-15T09:56:49;1.00;99.90
3406;DHT22;10008;48.682;9.016;2024-01-15T09:59:16;1.20;99.90
3406;DHT22;10008;48.682;9.016;2024-01-15T10:01:46;1.10;99.90
3406;DHT22;10008;48.682;9.016;2024-01-15T10:04:14;1.20;99.90
3406;DHT22;10008;48.682;9.016;2024-01-15T10:06:46;1.20;99.90
3406;DHT22;10008;48.682;9.016;2024-01-15T10:09:13;1.20;99.90
3406;DHT22;10008;48.682;9.016;2024-01-15T10:11:42;1.40;99.90
3406;DHT22;10008;48.682;9.016;2024-01-15T10:14:10;1.20;99.90
3406;DHT22;10008;48.682;9.016;2024-01-15T10:16:41;1.30;99.90
3406;DHT22;10008;48.682;9.016;2024-01-15T10:19:10;1.20;99.90
3406;DHT22;10008;48.682;9.016;2024-01-15T10:21:38;1.10;99.90
3406;DHT22;10008;48.682;9.016;2024-01-15T10:24:04;1.10;99.90
3406;DHT22;10008;48.682;9.016;2024-01-15T10:26:31;1.10;99.90
3406;DHT22;10008;48.682;9.016;2024-01-15T10:28:58;1.10;99.90
3406;DHT22;10008;48.682;9.016;2024-01-15T10:31:25;1.10;99.90
3406;DHT22;10008;48.682;9.016;2024-01-15T10:33:51;1.10;99.90
3406;DHT22;10008;48.682;9.016;2024-01-15T10:36:18;1.40;99.90
3406;DHT22;10008;48.682;9.016;2024-01-15T10:38:44;1.20;99.90
3406;DHT22;10008;48.682;9.016;2024-01-15T10:41:10;1.20;99.90
3406;DHT22;10008;48.682;9.016;2024-01-15T10:43:36;1.20;99.90
3406;DHT22;10008;48.682;9.016;2024-01-15T10:46:02;1.20;99.90
3406;DHT22;10008;48.682;9.016;2024-01-15T10:48:28;1.30;99.90
3406;DHT22;10008;48.682;9.016;2024-01-15T10:50:57;1.30;99.90
3406;DHT22;10008;48.682;9.016;2024-01-15T10:53:23;1.30;99.90
3406;DHT22;10008;48.682;9.016;2024-01-15T10:55:50;1.40;99.90
3406;DHT22;10008;48.682;9.016;2024-01-15T10:58:17;1.40;99.90
3406;DHT22;10008;48.682;9.016;2024-01-15T11:00:43;1.30;99.90
3406;DHT22;10008;48.682;9.016;2024-01-15T11:03:09;1.30;99.90
3406;DHT22;10008;48.682;9.016;2024-01-15T11:05:41;1.20;99.90
3406;DHT22;10008;48.682;9.016;2024-01-15T11:08:07;1.20;99.90
3406;DHT22;10008;48.682;9.016;2024-01-15T11:13:14;1.10;99.90
3406;DHT22;10008;48.682;9.016;2024-01-15T11:16:00;1.10;99.90
3406;DHT22;10008;48.682;9.016;2024-01-15T11:18:28;1.00;99.90
3406;DHT22;10008;48.682;9.016;2024-01-15T11:23:53;1.00;99.90
3406;DHT22;10008;48.682;9.016;2024-01-15T11:26:29;1.10;99.90
3406;DHT22;10008;48.682;9.016;2024-01-15T11:28:56;1.10;99.90
3406;DHT22;10008;48.682;9.016;2024-01-15T11:34:10;1.10;99.90
3406;DHT22;10008;48.682;9.016;2024-01-15T11:39:41;1.20;99.90
3406;DHT22;10008;48.682;9.016;2024-01-15T11:42:13;1.30;99.90
3406;DHT22;10008;48.682;9.016;2024-01-15T11:44:40;1.20;99.90
3406;DHT22;10008;48.682;9.016;2024-01-15T11:47:12;1.10;99.90
3406;DHT22;10008;48.682;9.016;2024-01-15T11:50:03;1.10;99.90
3406;DHT22;10008;48.682;9.016;2024-01-15T11:52:37;1.10;99.90
3406;DHT22;10008;48.682;9.016;2024-01-15T11:57:53;1.10;99.90
3406;DHT22;10008;48.682;9.016;2024-01-15T12:00:22;1.20;99.90
3406;DHT22;10008;48.682;9.016;2024-01-15T12:02:49;1.10;99.90
3406;DHT22;10008;48.682;9.016;2024-01-15T12:05:18;0.90;99.90
3406;DHT22;10008;48.682;9.016;2024-01-15T12:07:45;0.90;99.90
3406;DHT22;10008;48.682;9.016;2024-01-15T12:10:17;0.80;99.90
3406;DHT22;10008;48.682;9.016;2024-01-15T12:13:00;0.80;99.90
3406;DHT22;10008;48.682;9.016;2024-01-15T12:15:30;0.90;99.90
3406;DHT22;10008;48.682;9.016;2024-01-15T12:17:57;0.70;99.90
3406;DHT22;10008;48.682;9.016;2024-01-15T12:20:26;0.70;99.90
3406;DHT22;10008;48.682;9.016;2024-01-15T12:22:53;0.80;99.90
3406;DHT22;10008;48.682;9.016;2024-01-15T12:25:19;0.60;99.90
3406;DHT22;10008;48.682;9.016;2024-01-15T12:27:45;0.70;99.90
3406;DHT22;10008;48.682;9.016;2024-01-15T12:30:12;0.70;99.90
3406;DHT22;10008;48.682;9.016;2024-01-15T12:32:40;0.60;99.90
3406;DHT22;10008;48.682;9.016;2024-01-15T12:35:07;0.70;99.90
3406;DHT22;10008;48.682;9.016;2024-01-15T12:37:36;0.60;99.90
3406;DHT22;10008;48.682;9.016;2024-01-15T12:40:11;0.70;99.90
3406;DHT22;10008;48.682;9.016;2024-01-15T12:42:39;0.70;99.90
3406;DHT22;10008;48.682;9.016;2024-01-15T12:45:06;0.70;99.90
3406;DHT22;10008;48.682;9.016;2024-01-15T12:47:32;0.60;99.90
3406;DHT22;10008;48.682;9.016;2024-01-15T12:49:58;0.50;99.90
3406;DHT22;10008;48.682;9.016;2024-01-15T12:52:28;0.50;99.90
3406;DHT22;10008;48.682;9.016;2024-01-15T12:54:54;0.50;99.90
3406;DHT22;10008;48.682;9.016;2024-01-15T12:57:20;0.50;99.90
3406;DHT22;10008;48.682;9.016;2024-01-15T12:59:46;0.40;99.90
3406;DHT22;10008;48.682;9.016;2024-01-15T13:02:13;0.40;99.90
3406;DHT22;10008;48.682;9.016;2024-01-15T13:04:39;0.40;99.90
3406;DHT22;10008;48.682;9.016;2024-01-15T13:07:06;0.70;99.90
3406;DHT22;10008;48.682;9.016;2024-01-15T13:09:32;0.40;99.90
3406;DHT22;10008;48.682;9.016;2024-01-15T13:11:58;0.70;99.90
3406;DHT22;10008;48.682;9.016;2024-01-15T13:14:24;0.40;99.90
3406;DHT22;10008;48.682;9.016;2024-01-15T13:16:50;0.60;99.90
3406;DHT22;10008;48.682;9.016;2024-01-15T13:19:15;0.50;99.90
3406;DHT22;10008;48.682;9.016;2024-01-15T13:21:41;0.50;99.90
3406;DHT22;10008;48.682;9.016;2024-01-15T13:24:07;0.50;99.90
3406;DHT22;10008;48.682;9.016;2024-01-15T13:26:34;0.50;99.90
3406;DHT22;10008;48.682;9.016;2024-01-15T13:29:00;0.50;99.90
3406;DHT22;10008;48.682;9.016;2024-01-15T13:31:27;0.50;99.90
3406;DHT22;10008;48.682;9.016;2024-01-15T13:33:53;0.50;99.90
3406;DHT22;10008;48.682;9.016;2024-01-15T13:36:21;0.50;99.90
3406;DHT22;10008;48.682;9.016;2024-01-15T13:38:47;0.40;99.90
3406;DHT22;10008;48.682;9.016;2024-01-15T13:41:12;0.40;99.90
3406;DHT22;10008;48.682;9.016;2024-01-15T13:43:38;0.40;99.90
3406;DHT22;10008;48.682;9.016;2024-01-15T13:46:04;0.40;99.90
3406;DHT22;10008;48.682;9.016;2024-01-15T13:48:31;0.40;99.90
3406;DHT22;10008;48.682;9.016;2024-01-15T13:50:57;0.40;99.90
3406;DHT22;10008;48.682;9.016;2024-01-15T13:53:23;0.40;99.90
3406;DHT22;10008;48.682;9.016;2024-01-15T13:55:49;0.40;99.90
3406;DHT22;10008;48.682;9.016;2024-01-15T13:58:14;0.50;99.90
3406;DHT22;10008;48.682;9.016;2024-01-15T14:00:41;0.50;99.90
3406;DHT22;10008;48.682;9.016;2024-01-15T14:03:07;0.50;99.90
3406;DHT22;10008;48.682;9.016;2024-01-15T14:05:34;0.50;99.90
3406;DHT22;10008;48.682;9.016;2024-01-15T14:07:59;0.50;99.90
3406;DHT22;10008;48.682;9.016;2024-01-15T14:10:25;0.50;99.90
3406;DHT22;10008;48.682;9.016;2024-01-15T14:12:51;0.50;99.90
3406;DHT22;10008;48.682;9.016;2024-01-15T14:15:17;0.50;99.90
3406;DHT22;10008;48.682;9.016;2024-01-15T14:17:44;0.40;99.90
3406;DHT22;10008;48.682;9.016;2024-01-15T14:20:10;0.50;99.90
3406;DHT22;10008;48.682;9.016;2024-01-15T14:22:36;0.50;99.90
3406;DHT22;10008;48.682;9.016;2024-01-15T14:25:02;0.60;99.90
3406;DHT22;10008;48.682;9.016;2024-01-15T14:27:27;0.50;99.90
3406;DHT22;10008;48.682;9.016;2024-01-15T14:29:53;0.60;99.90
3406;DHT22;10008;48.682;9.016;2024-01-15T14:32:19;0.70;99.90
3406;DHT22;10008;48.682;9.016;2024-01-15T14:34:45;0.60;99.90
3406;DHT22;10008;48.682;9.016;2024-01-15T14:37:10;0.60;99.90
3406;DHT22;10008;48.682;9.016;2024-01-15T14:39:37;0.60;99.90
3406;DHT22;10008;48.682;9.016;2024-01-15T14:42:03;0.60;99.90
3406;DHT22;10008;48.682;9.016;2024-01-15T14:44:29;0.50;99.90
3406;DHT22;10008;48.682;9.016;2024-01-15T14:46:54;0.70;99.90
3406;DHT22;10008;48.682;9.016;2024-01-15T14:49:21;0.50;99.90
3406;DHT22;10008;48.682;9.016;2024-01-15T14:51:47;0.50;99.90
3406;DHT22;10008;48.682;9.016;2024-01-15T14:54:14;0.30;99.90
3406;DHT22;10008;48.682;9.016;2024-01-15T14:56:40;0.30;99.90
3406;DHT22;10008;48.682;9.016;2024-01-15T14:59:05;0.30;99.90
3406;DHT22;10008;48.682;9.016;2024-01-15T15:01:32;0.40;99.90
3406;DHT22;10008;48.682;9.016;2024-01-15T15:03:58;0.30;99.90
3406;DHT22;10008;48.682;9.016;2024-01-15T15:06:23;0.30;99.90
3406;DHT22;10008;48.682;9.016;2024-01-15T15:08:53;0.40;99.90
3406;DHT22;10008;48.682;9.016;2024-01-15T15:11:21;0.40;99.90
3406;DHT22;10008;48.682;9.016;2024-01-15T15:13:48;0.40;99.90
3406;DHT22;10008;48.682;9.016;2024-01-15T15:16:15;0.30;99.90
3406;DHT22;10008;48.682;9.016;2024-01-15T15:18:41;0.30;99.90
3406;DHT22;10008;48.682;9.016;2024-01-15T15:21:09;0.20;99.90
3406;DHT22;10008;48.682;9.016;2024-01-15T15:23:35;0.10;99.90
3406;DHT22;10008;48.682;9.016;2024-01-15T15:26:01;0.20;99.90
3406;DHT22;10008;48.682;9.016;2024-01-15T15:28:27;0.20;99.90
3406;DHT22;10008;48.682;9.016;2024-01-15T15:30:53;0.20;99.90
3406;DHT22;10008;48.682;9.016;2024-01-15T15:33:18;0.30;99.90
3406;DHT22;10008;48.682;9.016;2024-01-15T15:35:44;0.20;99.90
3406;DHT22;10008;48.682;9.016;2024-01-15T15:38:10;0.10;99.90
3406;DHT22;10008;48.682;9.016;2024-01-15T15:40:36;0.10;99.90
3406;DHT22;10008;48.682;9.016;2024-01-15T15:43:01;0.00;99.90
3406;DHT22;10008;48.682;9.016;2024-01-15T15:45:27;0.10;99.90
3406;DHT22;10008;48.682;9.016;2024-01-15T15:47:53;0.20;99.90
3406;DHT22;10008;48.682;9.016;2024-01-15T15:50:18;0.00;99.90
3406;DHT22;10008;48.682;9.016;2024-01-15T15:52:44;0.00;99.90
3406;DHT22;10008;48.682;9.016;2024-01-15T15:55:10;0.10;99.90
3406;DHT22;10008;48.682;9.016;2024-01-15T15:57:36;0.00;99.90
3406;DHT22;10008;48.682;9.016;2024-01-15T16:00:01;0.00;99.90
3406;DHT22;10008;48.682;9.016;2024-01-15T16:02:37;-0.10;99.90
3406;DHT22;10008;48.682;9.016;2024-01-15T16:05:03;-0.10;99.90